Sunray, Texas
Current Conditions -  °F | °C
As of 6:55 PM on Monday 22 Dec 2014 (Local Time) from KDUX Reporting Station
Clear Clear  
Wind Chill: -2°   Ceiling: Unl
Heat Index:   Visibility: 10mi
Dew Point:   Wind: 10mph
Humidity: 87%   Direction: 260°W
Pressure: 29.74"   Gusts: NA
Location:  36.02°N, 101.82°W
Report Text: KDUX 230055Z AUTO 26009KT 10SM CLR 02/00 A2974 RMK AO2 T00190000
Loading
Personal Weather Stations






























Interactive Weather Map New forecast layout! Learn more

10-Day Weather Forecast

Advertisements
Track Severe Weather on mobile